Time;durP1;ratioP1;P1;durP2;ratioP2;P2;SDS_P1;SDS_P2;PMS_P1;PMS_P2;Temp;Humidity;BMP_temperature;BMP_pressure;BME280_temperature;BME280_humidity;BME280_pressure;Samples;Min_cycle;Max_cycle;Signal;HPM_P1;HPM_P2
2023/12/05 00:00:13;;;;;;;1.58;0.77;;;3.80;99.90;;;;;;5067460;28;20209;-82
2023/12/05 00:02:39;;;;;;;0.40;0.30;;;3.80;99.90;;;;;;5068580;28;20277;-85
2023/12/05 00:05:07;;;;;;;0.40;0.35;;;3.80;99.90;;;;;;5064284;28;20198;-83
2023/12/05 00:07:35;;;;;;;1.38;0.70;;;3.80;99.90;;;;;;5071877;28;20195;-80
2023/12/05 00:10:02;;;;;;;0.50;0.50;;;3.80;99.90;;;;;;5060331;28;20201;-82
2023/12/05 00:12:30;;;;;;;0.40;0.30;;;3.80;99.90;;;;;;5067007;28;20213;-83
2023/12/05 00:14:56;;;;;;;0.40;0.40;;;3.90;99.90;;;;;;5055644;28;20201;-83
2023/12/05 00:17:23;;;;;;;0.40;0.30;;;3.90;99.90;;;;;;5071864;28;20198;-82
2023/12/05 00:19:50;;;;;;;0.40;0.30;;;3.90;99.90;;;;;;5062059;28;20226;-82
2023/12/05 00:22:17;;;;;;;0.40;0.30;;;3.90;99.90;;;;;;5052578;28;20263;-83
2023/12/05 00:24:44;;;;;;;0.40;0.40;;;3.90;99.90;;;;;;5051513;28;20187;-80
2023/12/05 00:27:11;;;;;;;0.40;0.40;;;3.90;99.90;;;;;;5051598;28;20199;-81
2023/12/05 00:29:39;;;;;;;0.40;0.40;;;4.00;99.90;;;;;;5052227;28;20218;-82
2023/12/05 00:32:06;;;;;;;0.40;0.40;;;4.00;99.90;;;;;;5044471;28;20592;-83
2023/12/05 00:34:33;;;;;;;0.60;0.60;;;4.10;99.90;;;;;;5068032;28;20198;-83
2023/12/05 00:37:00;;;;;;;0.40;0.30;;;4.10;99.90;;;;;;5072061;28;20667;-82
2023/12/05 00:39:27;;;;;;;1.17;1.17;;;4.00;99.90;;;;;;5071355;28;20582;-83
2023/12/05 00:41:54;;;;;;;0.40;0.40;;;4.00;99.90;;;;;;5061234;28;20304;-81
2023/12/05 00:44:20;;;;;;;1.40;1.30;;;3.90;99.90;;;;;;5051217;28;20191;-83
2023/12/05 00:46:48;;;;;;;0.50;0.50;;;4.00;99.90;;;;;;5051159;28;20197;-78
2023/12/05 00:49:15;;;;;;;0.40;0.30;;;4.00;99.90;;;;;;5050636;28;20339;-83
2023/12/05 00:51:42;;;;;;;1.45;1.35;;;4.00;99.90;;;;;;5051205;28;20289;-81
2023/12/05 00:54:09;;;;;;;0.77;0.70;;;4.00;99.90;;;;;;5050902;28;20210;-83
2023/12/05 00:56:36;;;;;;;0.40;0.30;;;3.90;99.90;;;;;;5051471;28;20245;-82
2023/12/05 00:59:02;;;;;;;0.40;0.30;;;3.90;99.90;;;;;;5050993;28;20219;-83
2023/12/05 01:01:29;;;;;;;0.88;0.45;;;4.00;99.90;;;;;;5051316;28;20195;-83
2023/12/05 01:03:57;;;;;;;1.67;1.58;;;4.00;99.90;;;;;;5051344;28;20191;-83
2023/12/05 01:06:24;;;;;;;0.50;0.50;;;4.00;99.90;;;;;;5051351;28;20218;-81
2023/12/05 01:08:51;;;;;;;0.40;0.30;;;4.00;99.90;;;;;;5050597;28;20219;-83
2023/12/05 01:11:18;;;;;;;0.57;0.57;;;4.00;99.90;;;;;;5051249;28;20202;-82
2023/12/05 01:13:45;;;;;;;0.40;0.30;;;4.00;99.90;;;;;;5053886;28;20979;-83
2023/12/05 01:16:12;;;;;;;1.48;0.85;;;4.00;99.90;;;;;;5053982;28;20569;-83
2023/12/05 01:18:39;;;;;;;0.40;0.40;;;4.00;99.90;;;;;;5053164;28;20226;-83
2023/12/05 01:21:08;;;;;;;0.95;0.95;;;4.00;99.90;;;;;;5062007;28;20198;-83
2023/12/05 01:23:35;;;;;;;0.40;0.30;;;4.00;99.90;;;;;;5053789;28;20662;-83
2023/12/05 01:26:02;;;;;;;0.40;0.40;;;4.10;99.90;;;;;;5053941;28;20684;-82
2023/12/05 01:28:29;;;;;;;0.40;0.40;;;4.00;99.90;;;;;;5054994;28;20215;-82
2023/12/05 01:30:56;;;;;;;0.40;0.30;;;4.00;99.90;;;;;;5055137;28;20195;-84
2023/12/05 01:33:23;;;;;;;0.77;0.77;;;4.10;99.90;;;;;;5053890;28;20698;-83
2023/12/05 01:35:49;;;;;;;1.00;1.00;;;4.10;99.90;;;;;;5057391;28;20191;-83
2023/12/05 01:38:18;;;;;;;1.75;1.40;;;4.10;99.90;;;;;;5057204;28;20747;-84
2023/12/05 01:40:46;;;;;;;0.40;0.30;;;4.10;99.90;;;;;;5073535;28;20252;-83
2023/12/05 01:43:13;;;;;;;2.15;1.63;;;4.10;99.90;;;;;;5065371;28;20222;-83
2023/12/05 01:45:39;;;;;;;0.52;0.38;;;4.10;99.90;;;;;;5056989;28;20718;-83
2023/12/05 01:48:08;;;;;;;0.40;0.30;;;4.10;99.90;;;;;;5056903;28;20215;-84
2023/12/05 01:50:35;;;;;;;0.60;0.60;;;4.10;99.90;;;;;;5056842;28;20808;-84
2023/12/05 01:53:06;;;;;;;0.40;0.32;;;4.10;99.90;;;;;;5056912;28;20709;-84
2023/12/05 01:55:35;;;;;;;0.40;0.30;;;4.10;99.90;;;;;;5057145;28;20195;-83
2023/12/05 01:58:02;;;;;;;0.40;0.30;;;4.10;99.90;;;;;;5056062;28;20215;-84
2023/12/05 02:00:29;;;;;;;0.40;0.30;;;4.20;99.90;;;;;;5056846;28;20195;-83
2023/12/05 02:02:57;;;;;;;0.40;0.40;;;4.20;99.90;;;;;;5056210;28;20290;-84
2023/12/05 02:05:25;;;;;;;0.40;0.30;;;4.20;99.90;;;;;;5056599;28;20206;-84
2023/12/05 02:07:52;;;;;;;0.40;0.30;;;4.20;99.90;;;;;;5055930;28;20289;-83
2023/12/05 02:10:19;;;;;;;0.40;0.40;;;4.20;99.90;;;;;;5056291;28;20195;-83
2023/12/05 02:12:47;;;;;;;0.80;0.50;;;4.20;99.90;;;;;;5056305;28;20302;-83
2023/12/05 02:15:14;;;;;;;0.40;0.30;;;4.20;99.90;;;;;;5075953;28;20200;-83
2023/12/05 02:17:51;;;;;;;0.40;0.30;;;4.20;99.90;;;;;;5075959;28;20688;-83
2023/12/05 02:20:28;;;;;;;0.40;0.30;;;4.20;99.90;;;;;;5076125;28;20577;-83
2023/12/05 02:23:25;;;;;;;0.40;0.30;;;4.30;99.90;;;;;;5075994;28;20232;-83
2023/12/05 02:26:08;;;;;;;0.40;0.30;;;4.20;99.90;;;;;;5075576;28;20254;-82
2023/12/05 02:28:38;;;;;;;0.40;0.32;;;4.30;99.90;;;;;;5075584;28;20232;-82
2023/12/05 02:31:05;;;;;;;0.70;0.50;;;4.20;99.90;;;;;;5075690;28;20301;-83
2023/12/05 02:33:32;;;;;;;0.40;0.40;;;4.30;99.90;;;;;;5075472;28;20207;-83
2023/12/05 02:36:09;;;;;;;0.40;0.40;;;4.30;99.90;;;;;;5075604;28;20187;-84
2023/12/05 02:38:44;;;;;;;0.40;0.40;;;4.40;99.90;;;;;;5061057;28;20211;-80
2023/12/05 02:41:15;;;;;;;0.40;0.40;;;4.40;99.90;;;;;;5055796;28;20198;-84
2023/12/05 02:43:49;;;;;;;0.40;0.30;;;4.40;99.90;;;;;;5056128;28;20232;-84
2023/12/05 02:46:18;;;;;;;0.40;0.40;;;4.50;99.90;;;;;;5054559;28;20631;-83
2023/12/05 02:48:45;;;;;;;0.40;0.40;;;4.50;99.90;;;;;;5055388;28;20227;-83
2023/12/05 02:51:12;;;;;;;1.15;1.15;;;4.50;99.90;;;;;;5055771;28;20230;-84
2023/12/05 02:53:39;;;;;;;0.40;0.30;;;4.50;99.90;;;;;;5055796;28;20215;-84
2023/12/05 02:56:07;;;;;;;0.40;0.40;;;4.50;99.90;;;;;;5055472;28;20222;-84
2023/12/05 02:58:34;;;;;;;0.40;0.30;;;4.60;99.90;;;;;;5055430;28;20207;-84
2023/12/05 03:01:03;;;;;;;0.88;0.85;;;4.60;99.90;;;;;;5055044;28;20611;-84
2023/12/05 03:03:30;;;;;;;1.73;1.05;;;4.60;99.90;;;;;;5055670;28;20612;-83
2023/12/05 03:05:57;;;;;;;0.40;0.30;;;4.60;99.90;;;;;;5055993;28;20685;-83
2023/12/05 03:08:24;;;;;;;1.33;1.25;;;4.50;99.90;;;;;;5056153;28;20698;-85
2023/12/05 03:10:50;;;;;;;0.40;0.40;;;4.50;99.90;;;;;;5055748;28;20727;-85
2023/12/05 03:13:18;;;;;;;0.50;0.45;;;4.50;99.90;;;;;;5056066;28;20231;-84
2023/12/05 03:15:45;;;;;;;2.15;1.33;;;4.50;99.90;;;;;;5055019;28;20236;-84
2023/12/05 03:18:13;;;;;;;0.40;0.40;;;4.60;99.90;;;;;;5056271;28;20230;-83
2023/12/05 03:20:40;;;;;;;0.70;0.70;;;4.60;99.90;;;;;;5056992;28;20187;-83
2023/12/05 03:23:07;;;;;;;0.40;0.40;;;4.50;99.90;;;;;;5059223;28;20193;-83
2023/12/05 03:25:34;;;;;;;0.50;0.50;;;4.50;99.90;;;;;;5057385;28;20187;-85
2023/12/05 03:28:00;;;;;;;0.40;0.40;;;4.60;99.90;;;;;;5055610;28;20223;-84
2023/12/05 03:30:27;;;;;;;0.40;0.32;;;4.60;99.90;;;;;;5056157;28;20647;-83
2023/12/05 03:32:54;;;;;;;0.40;0.30;;;4.60;99.90;;;;;;5056454;28;20573;-84
2023/12/05 03:35:22;;;;;;;0.40;0.40;;;4.60;99.90;;;;;;5056357;28;20201;-84
2023/12/05 03:37:49;;;;;;;0.40;0.30;;;4.60;99.90;;;;;;5057283;28;20198;-84
2023/12/05 03:40:16;;;;;;;0.40;0.35;;;4.70;99.90;;;;;;5055624;28;20286;-84
2023/12/05 03:42:42;;;;;;;0.40;0.40;;;4.70;99.90;;;;;;5055991;28;20191;-81
2023/12/05 03:45:10;;;;;;;2.35;2.20;;;4.70;99.90;;;;;;5056384;28;20209;-85
2023/12/05 03:47:37;;;;;;;0.40;0.30;;;4.70;99.90;;;;;;5055887;28;20199;-85
2023/12/05 03:50:04;;;;;;;0.40;0.30;;;4.60;99.90;;;;;;5055483;28;20187;-85
2023/12/05 03:52:32;;;;;;;0.40;0.40;;;4.60;99.90;;;;;;5056409;28;20197;-85
2023/12/05 03:54:59;;;;;;;0.40;0.40;;;4.70;99.90;;;;;;5073069;28;20242;-83
2023/12/05 03:57:26;;;;;;;0.40;0.40;;;4.70;99.90;;;;;;5076081;28;20273;-83
2023/12/05 03:59:52;;;;;;;0.68;0.68;;;4.70;99.90;;;;;;5090032;28;20215;-83
2023/12/05 04:02:19;;;;;;;0.40;0.38;;;4.70;99.90;;;;;;5086886;28;20293;-84
2023/12/05 04:04:46;;;;;;;0.40;0.40;;;4.80;99.90;;;;;;5072541;28;20259;-82
2023/12/05 04:07:13;;;;;;;0.40;0.40;;;4.80;99.90;;;;;;5071879;28;20222;-85
2023/12/05 04:09:41;;;;;;;1.15;0.40;;;4.80;99.90;;;;;;5070978;28;20223;-84
2023/12/05 04:12:08;;;;;;;0.95;0.75;;;4.70;99.90;;;;;;5071327;28;20222;-84
2023/12/05 04:14:35;;;;;;;0.40;0.40;;;4.80;99.90;;;;;;5072826;28;20241;-85
2023/12/05 04:17:02;;;;;;;0.40;0.40;;;4.80;99.90;;;;;;5072019;28;20681;-85
2023/12/05 04:19:29;;;;;;;0.40;0.40;;;4.80;99.90;;;;;;5065612;28;20278;-86
2023/12/05 04:21:55;;;;;;;0.50;0.50;;;4.80;99.90;;;;;;5059237;28;20199;-85
2023/12/05 04:24:22;;;;;;;0.40;0.30;;;4.80;99.90;;;;;;5058704;28;20202;-86
2023/12/05 04:26:50;;;;;;;0.40;0.40;;;4.80;99.90;;;;;;5057776;28;20191;-82
2023/12/05 04:29:17;;;;;;;0.47;0.45;;;4.80;99.90;;;;;;5056594;28;20313;-84
2023/12/05 04:31:44;;;;;;;0.40;0.30;;;4.90;99.90;;;;;;5057215;28;20194;-83
2023/12/05 04:34:11;;;;;;;0.40;0.40;;;4.90;99.90;;;;;;5056974;28;20211;-85
2023/12/05 04:36:37;;;;;;;0.40;0.40;;;4.90;99.90;;;;;;5057720;28;20201;-85
2023/12/05 04:39:07;;;;;;;0.40;0.38;;;4.90;99.90;;;;;;5058440;28;20225;-83
2023/12/05 04:41:35;;;;;;;0.40;0.40;;;5.00;99.90;;;;;;5055893;28;20191;-84
2023/12/05 04:44:04;;;;;;;0.40;0.40;;;5.00;99.90;;;;;;5055957;28;20673;-84
2023/12/05 04:46:30;;;;;;;0.40;0.40;;;5.00;99.90;;;;;;5057657;28;20191;-84
2023/12/05 04:48:57;;;;;;;0.40;0.40;;;5.00;99.90;;;;;;5058627;28;20581;-85
2023/12/05 04:51:24;;;;;;;0.40;0.38;;;5.10;99.90;;;;;;5058539;28;20338;-85
2023/12/05 04:53:51;;;;;;;0.40;0.40;;;5.00;99.90;;;;;;5057540;28;20221;-85
2023/12/05 04:56:17;;;;;;;0.40;0.40;;;5.10;99.90;;;;;;5055393;28;20202;-83
2023/12/05 04:58:44;;;;;;;0.40;0.30;;;5.10;99.90;;;;;;5054904;28;20244;-84
2023/12/05 05:01:13;;;;;;;1.45;0.70;;;5.10;99.90;;;;;;5055737;28;20749;-83
2023/12/05 05:03:40;;;;;;;0.40;0.30;;;5.00;99.90;;;;;;5055857;28;20629;-84
2023/12/05 05:06:07;;;;;;;0.40;0.40;;;5.00;99.90;;;;;;5054614;28;20198;-85
2023/12/05 05:08:33;;;;;;;0.60;0.50;;;5.10;99.90;;;;;;5054887;28;20768;-85
2023/12/05 05:11:00;;;;;;;0.40;0.30;;;5.10;99.90;;;;;;5058690;28;20201;-83
2023/12/05 05:13:27;;;;;;;0.40;0.40;;;5.10;99.90;;;;;;5078414;28;20292;-85
2023/12/05 05:15:54;;;;;;;1.20;1.20;;;5.10;99.90;;;;;;5079064;28;20262;-84
2023/12/05 05:18:22;;;;;;;0.88;0.88;;;5.10;99.90;;;;;;5078779;28;20245;-85
2023/12/05 05:20:49;;;;;;;1.38;1.27;;;5.20;99.90;;;;;;5079420;28;20316;-84
2023/12/05 05:23:16;;;;;;;3.75;2.20;;;5.20;99.90;;;;;;5077096;28;20222;-84
2023/12/05 05:25:42;;;;;;;0.98;0.65;;;5.20;99.90;;;;;;5059036;28;20198;-83
2023/12/05 05:28:10;;;;;;;0.85;0.85;;;5.20;99.90;;;;;;5058545;28;20218;-84
2023/12/05 05:30:39;;;;;;;0.95;0.95;;;5.20;99.90;;;;;;5078239;28;20193;-82
2023/12/05 05:33:06;;;;;;;3.92;3.03;;;5.20;99.90;;;;;;5079424;28;20225;-82
2023/12/05 05:35:34;;;;;;;0.77;0.77;;;5.30;99.90;;;;;;5049761;28;20218;-83
2023/12/05 05:38:01;;;;;;;1.83;1.70;;;5.20;99.90;;;;;;5057322;28;20221;-82
2023/12/05 05:40:28;;;;;;;0.75;0.40;;;5.30;99.90;;;;;;5057593;28;20321;-83
2023/12/05 05:42:55;;;;;;;0.40;0.38;;;5.30;99.90;;;;;;5057600;28;20229;-83
2023/12/05 05:45:22;;;;;;;0.40;0.40;;;5.30;99.90;;;;;;5056896;28;20192;-83
2023/12/05 05:47:49;;;;;;;1.13;1.02;;;5.30;99.90;;;;;;5064526;28;20282;-83
2023/12/05 05:50:16;;;;;;;0.50;0.40;;;5.40;99.90;;;;;;5077862;28;20757;-83
2023/12/05 05:52:44;;;;;;;0.50;0.47;;;5.40;99.90;;;;;;5077612;28;20209;-83
2023/12/05 05:55:11;;;;;;;0.68;0.68;;;5.40;99.90;;;;;;5077880;28;20215;-84
2023/12/05 05:57:37;;;;;;;0.95;0.93;;;5.40;99.90;;;;;;5078613;28;20201;-81
2023/12/05 06:00:06;;;;;;;2.75;2.13;;;5.40;99.90;;;;;;5077729;28;20205;-83
2023/12/05 06:02:33;;;;;;;0.40;0.40;;;5.50;99.90;;;;;;5077150;28;20666;-85
2023/12/05 06:05:00;;;;;;;0.70;0.70;;;5.50;99.90;;;;;;5077255;28;20187;-83
2023/12/05 06:07:27;;;;;;;0.93;0.50;;;5.50;99.90;;;;;;5077618;28;20202;-83
2023/12/05 06:09:55;;;;;;;2.08;1.60;;;5.50;99.90;;;;;;5077007;28;20216;-83
2023/12/05 06:12:22;;;;;;;1.20;1.05;;;5.60;99.90;;;;;;5077996;28;20303;-82
2023/12/05 06:14:49;;;;;;;0.85;0.85;;;5.60;99.90;;;;;;5064056;28;20211;-80
2023/12/05 06:17:15;;;;;;;2.63;0.85;;;5.60;99.90;;;;;;5056340;28;20191;-82
2023/12/05 06:19:42;;;;;;;0.40;0.30;;;5.70;99.90;;;;;;5057008;28;20227;-82
2023/12/05 06:22:09;;;;;;;2.25;1.90;;;5.70;99.90;;;;;;5064354;28;20573;-82
2023/12/05 06:24:36;;;;;;;1.10;1.10;;;5.70;99.90;;;;;;5076258;28;20187;-83
2023/12/05 06:27:05;;;;;;;0.85;0.68;;;5.70;99.90;;;;;;5076835;28;20285;-83
2023/12/05 06:29:32;;;;;;;0.40;0.40;;;5.70;99.90;;;;;;5077508;28;20553;-83
2023/12/05 06:31:58;;;;;;;1.27;1.17;;;5.70;99.90;;;;;;5078718;28;20632;-82
2023/12/05 06:34:26;;;;;;;4.00;0.70;;;5.80;99.90;;;;;;5078287;28;20218;-83
2023/12/05 06:36:53;;;;;;;0.50;0.40;;;5.80;99.90;;;;;;5077762;28;20195;-80
2023/12/05 06:39:19;;;;;;;0.40;0.30;;;5.80;99.90;;;;;;5067676;28;20221;-83
2023/12/05 06:41:46;;;;;;;0.50;0.50;;;5.80;99.90;;;;;;5060162;28;20195;-84
2023/12/05 06:44:15;;;;;;;0.80;0.80;;;5.80;99.90;;;;;;5058802;28;20222;-84
2023/12/05 06:46:41;;;;;;;1.38;1.27;;;5.80;99.90;;;;;;5050110;28;20196;-83
2023/12/05 06:49:08;;;;;;;0.50;0.50;;;5.80;99.90;;;;;;5056608;28;20211;-84
2023/12/05 06:51:35;;;;;;;0.40;0.30;;;5.80;99.90;;;;;;5058090;28;20256;-85
2023/12/05 06:54:03;;;;;;;0.50;0.40;;;5.80;99.90;;;;;;5057247;28;20653;-83
2023/12/05 06:56:30;;;;;;;0.40;0.40;;;5.90;99.90;;;;;;5058041;28;20294;-83
2023/12/05 06:58:58;;;;;;;0.40;0.40;;;5.90;99.90;;;;;;5062096;28;20218;-83
2023/12/05 07:01:26;;;;;;;0.60;0.60;;;5.90;99.90;;;;;;5064761;28;20199;-85
2023/12/05 07:03:53;;;;;;;0.40;0.40;;;5.90;99.90;;;;;;5059556;28;20225;-83
2023/12/05 07:06:19;;;;;;;0.60;0.60;;;5.90;99.90;;;;;;5059758;28;20199;-83
2023/12/05 07:08:46;;;;;;;0.50;0.50;;;6.00;99.90;;;;;;5060426;28;20219;-82
2023/12/05 07:11:13;;;;;;;2.35;2.15;;;5.90;99.90;;;;;;5058913;28;20195;-81
2023/12/05 07:13:40;;;;;;;2.80;1.00;;;5.90;99.90;;;;;;5059384;28;20609;-82
2023/12/05 07:16:07;;;;;;;0.68;0.63;;;5.90;99.90;;;;;;5059810;28;20215;-83
2023/12/05 07:18:37;;;;;;;0.50;0.40;;;5.90;99.90;;;;;;5057673;28;20313;-83
2023/12/05 07:21:05;;;;;;;3.38;1.23;;;5.90;99.90;;;;;;5067230;28;20221;-82
2023/12/05 07:23:30;;;;;;;0.95;0.85;;;5.90;99.90;;;;;;5058691;28;20197;-81
2023/12/05 07:25:57;;;;;;;2.90;2.67;;;5.90;99.90;;;;;;5059616;28;20179;-83
2023/12/05 07:28:24;;;;;;;0.50;0.50;;;5.90;99.90;;;;;;5060226;28;20456;-82
2023/12/05 07:30:51;;;;;;;0.88;0.73;;;5.90;99.90;;;;;;5057649;28;20198;-82
2023/12/05 07:33:18;;;;;;;1.20;0.80;;;5.90;99.90;;;;;;5057511;28;20206;-82
2023/12/05 07:35:46;;;;;;;1.25;1.25;;;5.90;99.90;;;;;;5061014;28;20215;-83
2023/12/05 07:38:13;;;;;;;0.40;0.35;;;5.90;99.90;;;;;;5077856;28;20305;-82
2023/12/05 07:40:40;;;;;;;2.20;2.05;;;5.90;99.90;;;;;;5078069;28;20206;-82
2023/12/05 07:43:06;;;;;;;0.40;0.40;;;5.90;99.90;;;;;;5077288;28;20194;-83
2023/12/05 07:45:34;;;;;;;1.67;1.58;;;5.90;99.90;;;;;;5079111;28;20190;-82
2023/12/05 07:48:00;;;;;;;0.45;0.45;;;5.90;99.90;;;;;;5078034;28;20620;-81
2023/12/05 07:50:27;;;;;;;0.50;0.50;;;5.90;99.90;;;;;;5077787;28;20195;-82
2023/12/05 07:52:55;;;;;;;2.15;2.05;;;6.00;99.90;;;;;;5078028;28;20282;-82
2023/12/05 07:55:22;;;;;;;1.17;1.13;;;6.00;99.90;;;;;;5077830;28;20207;-82
2023/12/05 07:57:50;;;;;;;0.60;0.60;;;6.00;99.90;;;;;;5078755;28;20552;-82
2023/12/05 08:00:18;;;;;;;1.67;0.57;;;6.00;99.90;;;;;;5079420;28;20237;-82
2023/12/05 08:02:46;;;;;;;0.95;0.95;;;6.00;99.90;;;;;;5079129;28;20619;-82
2023/12/05 08:05:13;;;;;;;0.40;0.40;;;6.00;99.90;;;;;;5078595;28;20274;-83
2023/12/05 08:07:40;;;;;;;2.35;2.25;;;6.00;99.90;;;;;;5077632;28;20216;-80
2023/12/05 08:10:10;;;;;;;0.60;0.60;;;6.00;99.90;;;;;;5078048;28;20569;-82
2023/12/05 08:12:37;;;;;;;0.82;0.82;;;6.10;99.90;;;;;;5078743;28;20201;-82
2023/12/05 08:15:05;;;;;;;2.35;2.25;;;6.10;99.90;;;;;;5078888;28;20244;-82
2023/12/05 08:17:32;;;;;;;0.60;0.60;;;6.10;99.90;;;;;;5078049;28;20199;-83
2023/12/05 08:19:59;;;;;;;0.90;0.87;;;6.20;99.90;;;;;;5050703;28;1090543;-82
2023/12/05 08:22:26;;;;;;;2.17;2.08;;;6.20;99.90;;;;;;5091405;28;20501;-82
2023/12/05 08:24:53;;;;;;;0.40;0.40;;;6.20;99.90;;;;;;5092556;28;20220;-82
2023/12/05 08:27:22;;;;;;;1.75;1.65;;;6.20;99.90;;;;;;5084384;28;20286;-81
2023/12/05 08:29:49;;;;;;;2.45;1.77;;;6.20;99.90;;;;;;5063695;28;20231;-81
2023/12/05 08:32:15;;;;;;;1.85;0.60;;;6.20;99.90;;;;;;5070944;28;20259;-80
2023/12/05 08:34:42;;;;;;;4.20;1.65;;;6.20;99.90;;;;;;5059507;28;20225;-82
2023/12/05 08:37:09;;;;;;;0.80;0.80;;;6.20;99.90;;;;;;5057552;28;20195;-82
2023/12/05 08:39:36;;;;;;;0.75;0.75;;;6.30;99.90;;;;;;5057589;28;20217;-82
2023/12/05 08:42:03;;;;;;;2.05;1.52;;;6.30;99.90;;;;;;5058206;28;20219;-82
2023/12/05 08:44:31;;;;;;;0.50;0.43;;;6.40;99.90;;;;;;5060873;28;20237;-82
2023/12/05 08:46:58;;;;;;;0.40;0.30;;;6.30;99.90;;;;;;5070052;28;20220;-82
2023/12/05 08:49:25;;;;;;;3.70;2.63;;;6.40;99.90;;;;;;5068680;28;20270;-83
2023/12/05 08:51:52;;;;;;;0.40;0.40;;;6.50;99.90;;;;;;5061455;28;20267;-82
2023/12/05 08:54:19;;;;;;;0.40;0.40;;;6.40;99.90;;;;;;5071610;28;20258;-82
2023/12/05 08:56:46;;;;;;;0.40;0.30;;;6.40;99.90;;;;;;5071033;28;20214;-82
2023/12/05 08:59:12;;;;;;;0.55;0.50;;;6.50;99.90;;;;;;5071092;28;20299;-83
2023/12/05 09:01:41;;;;;;;0.40;0.40;;;6.50;99.90;;;;;;5070930;28;20191;-82
2023/12/05 09:04:09;;;;;;;0.40;0.40;;;6.50;99.90;;;;;;5068283;28;20195;-80
2023/12/05 09:06:36;;;;;;;4.72;1.40;;;6.50;99.90;;;;;;5083972;28;20217;-82
2023/12/05 09:09:03;;;;;;;0.40;0.30;;;6.50;99.90;;;;;;5085788;28;20210;-83
2023/12/05 09:11:30;;;;;;;1.30;0.60;;;6.60;99.90;;;;;;5078722;28;20194;-82
2023/12/05 09:13:58;;;;;;;0.50;0.40;;;6.60;99.90;;;;;;5078777;28;20194;-82
2023/12/05 09:16:25;;;;;;;0.40;0.40;;;6.60;99.90;;;;;;5078365;28;20221;-82
2023/12/05 09:18:53;;;;;;;0.40;0.40;;;6.60;99.90;;;;;;5077428;28;20219;-82
2023/12/05 09:21:20;;;;;;;0.50;0.40;;;6.60;99.90;;;;;;5078118;28;20195;-81
2023/12/05 09:23:47;;;;;;;0.93;0.60;;;6.70;99.90;;;;;;5077379;28;20197;-81
2023/12/05 09:26:14;;;;;;;0.40;0.40;;;6.70;99.90;;;;;;5077431;28;20225;-81
2023/12/05 09:28:41;;;;;;;0.70;0.60;;;6.70;99.90;;;;;;5076144;28;20765;-79
2023/12/05 09:31:08;;;;;;;0.40;0.40;;;6.70;99.90;;;;;;5075133;28;20533;-83
2023/12/05 09:33:35;;;;;;;0.80;0.60;;;6.70;99.90;;;;;;5076528;28;20277;-81
2023/12/05 09:36:03;;;;;;;1.67;1.25;;;6.70;99.90;;;;;;5076723;28;20214;-82
2023/12/05 09:38:31;;;;;;;0.40;0.30;;;6.70;99.90;;;;;;5078088;28;20218;-82
2023/12/05 09:40:58;;;;;;;0.40;0.40;;;6.80;99.90;;;;;;5075843;28;20651;-81
2023/12/05 09:43:28;;;;;;;0.52;0.52;;;6.80;99.90;;;;;;5075794;28;20277;-81
2023/12/05 09:46:00;;;;;;;0.85;0.50;;;6.80;99.90;;;;;;5075861;28;20186;-81
2023/12/05 09:48:29;;;;;;;1.05;0.95;;;6.80;99.90;;;;;;5075632;28;20225;-81
2023/12/05 09:50:57;;;;;;;0.40;0.30;;;6.80;99.90;;;;;;5074638;28;20222;-81
2023/12/05 09:53:27;;;;;;;1.40;1.33;;;6.80;99.90;;;;;;5076941;28;20629;-81
2023/12/05 09:55:54;;;;;;;0.40;0.40;;;6.80;99.90;;;;;;5076563;28;20652;-84
2023/12/05 09:58:23;;;;;;;0.60;0.60;;;6.80;99.90;;;;;;5079066;28;20225;-81
2023/12/05 10:00:52;;;;;;;0.40;0.40;;;6.80;99.90;;;;;;5084352;28;20201;-81
2023/12/05 10:03:19;;;;;;;0.40;0.30;;;6.80;99.90;;;;;;5083840;28;20198;-82
2023/12/05 10:05:48;;;;;;;1.10;1.00;;;6.80;99.90;;;;;;5082670;28;20620;-82
2023/12/05 10:08:16;;;;;;;0.60;0.60;;;6.80;99.90;;;;;;5080044;28;20220;-82
2023/12/05 10:10:46;;;;;;;2.78;1.20;;;6.80;99.90;;;;;;5077922;28;20225;-82
2023/12/05 10:13:13;;;;;;;1.05;0.57;;;6.80;99.90;;;;;;5077733;28;20198;-82
2023/12/05 10:15:42;;;;;;;0.50;0.50;;;6.80;99.90;;;;;;5077945;28;20221;-82
2023/12/05 10:18:10;;;;;;;0.73;0.73;;;6.80;99.90;;;;;;5078239;28;20256;-81
2023/12/05 10:20:38;;;;;;;0.50;0.40;;;6.80;99.90;;;;;;5078164;28;20195;-82
2023/12/05 10:23:05;;;;;;;0.98;0.80;;;6.80;99.90;;;;;;5078677;28;20250;-82
2023/12/05 10:25:32;;;;;;;0.50;0.40;;;6.80;99.90;;;;;;5078821;28;20199;-83
2023/12/05 10:28:05;;;;;;;0.60;0.60;;;6.80;99.90;;;;;;5079131;28;20642;-80
2023/12/05 10:30:33;;;;;;;0.40;0.30;;;6.80;99.90;;;;;;5078751;28;20244;-80
2023/12/05 10:33:10;;;;;;;0.40;0.30;;;6.90;99.90;;;;;;5050032;28;20198;-83
2023/12/05 10:35:37;;;;;;;0.40;0.40;;;6.80;99.90;;;;;;5057395;28;20211;-83
2023/12/05 10:38:08;;;;;;;0.45;0.45;;;6.80;99.90;;;;;;5057011;28;20286;-81
2023/12/05 10:40:51;;;;;;;0.50;0.50;;;6.80;99.90;;;;;;5057498;28;20191;-81
2023/12/05 10:43:20;;;;;;;1.33;1.25;;;6.80;99.90;;;;;;5057443;28;20191;-81
2023/12/05 10:45:47;;;;;;;0.40;0.40;;;6.80;99.90;;;;;;5057758;28;20206;-82
2023/12/05 10:48:16;;;;;;;0.40;0.40;;;6.80;99.90;;;;;;5056872;28;20306;-81
2023/12/05 10:50:44;;;;;;;0.50;0.50;;;6.80;99.90;;;;;;5057340;28;20286;-82
2023/12/05 10:53:11;;;;;;;4.43;1.40;;;6.90;99.90;;;;;;5057227;28;20199;-81
2023/12/05 10:55:37;;;;;;;0.40;0.40;;;6.90;99.90;;;;;;5057198;28;20661;-82
2023/12/05 10:58:05;;;;;;;0.40;0.40;;;6.90;99.90;;;;;;5061764;28;20211;-82
2023/12/05 11:00:34;;;;;;;0.70;0.70;;;6.90;99.90;;;;;;5059206;28;20563;-82
2023/12/05 11:03:03;;;;;;;0.40;0.40;;;6.90;99.90;;;;;;5056593;28;20651;-82
2023/12/05 11:05:31;;;;;;;1.50;1.35;;;6.90;99.90;;;;;;5057838;28;20225;-81
2023/12/05 11:07:58;;;;;;;0.80;0.60;;;6.90;99.90;;;;;;5056270;28;20199;-82
2023/12/05 11:10:26;;;;;;;1.23;1.17;;;6.80;99.90;;;;;;5056081;28;20209;-83
2023/12/05 11:12:54;;;;;;;1.20;1.10;;;6.80;99.90;;;;;;5059584;28;20202;-82
2023/12/05 11:15:24;;;;;;;0.40;0.40;;;6.70;99.90;;;;;;5072890;28;20246;-83
2023/12/05 11:17:58;;;;;;;0.40;0.30;;;6.70;99.90;;;;;;5068086;28;20255;-83
2023/12/05 11:20:38;;;;;;;0.73;0.70;;;6.80;99.90;;;;;;5059476;28;20223;-82
2023/12/05 11:23:25;;;;;;;0.80;0.77;;;6.80;99.90;;;;;;5059349;28;20757;-82
2023/12/05 11:26:02;;;;;;;0.50;0.50;;;6.80;99.90;;;;;;5058424;28;20206;-81
2023/12/05 11:28:47;;;;;;;0.90;0.50;;;6.80;99.90;;;;;;5059294;28;20283;-83
2023/12/05 11:31:26;;;;;;;0.40;0.40;;;6.80;99.90;;;;;;5058821;28;20195;-81
2023/12/05 11:34:14;;;;;;;0.40;0.40;;;6.80;99.90;;;;;;5058342;28;20195;-83
2023/12/05 11:36:55;;;;;;;0.40;0.40;;;6.80;99.90;;;;;;5059457;28;20290;-83
2023/12/05 11:39:23;;;;;;;2.10;0.98;;;6.80;99.90;;;;;;5072339;28;20301;-82
2023/12/05 11:42:10;;;;;;;0.40;0.40;;;6.80;99.90;;;;;;5068334;28;20263;-82
2023/12/05 11:44:37;;;;;;;2.55;2.45;;;6.80;99.90;;;;;;5057905;28;20757;-82
2023/12/05 11:47:09;;;;;;;0.40;0.40;;;6.80;99.90;;;;;;5057572;28;20278;-82
2023/12/05 11:49:39;;;;;;;1.60;1.50;;;6.80;99.90;;;;;;5057500;28;20219;-81
2023/12/05 11:52:10;;;;;;;0.50;0.50;;;6.80;99.90;;;;;;5056451;28;20199;-81
2023/12/05 11:54:37;;;;;;;1.10;0.88;;;6.80;99.90;;;;;;5056632;28;20206;-81
2023/12/05 11:57:14;;;;;;;0.75;0.73;;;6.80;99.90;;;;;;5054936;28;20685;-84
2023/12/05 11:59:43;;;;;;;0.50;0.43;;;6.80;99.90;;;;;;5056597;28;20221;-81
2023/12/05 12:02:13;;;;;;;1.50;1.40;;;6.80;99.90;;;;;;5055890;28;20290;-81
2023/12/05 12:04:41;;;;;;;1.45;1.35;;;6.80;99.90;;;;;;5056724;28;20202;-81
2023/12/05 12:07:08;;;;;;;0.70;0.70;;;6.70;99.90;;;;;;5057811;28;20286;-82
2023/12/05 12:09:39;;;;;;;2.85;1.73;;;6.70;99.90;;;;;;5056392;28;20219;-81
2023/12/05 12:12:08;;;;;;;1.02;0.93;;;6.70;99.90;;;;;;5056691;28;20201;-81
2023/12/05 12:14:36;;;;;;;0.50;0.40;;;6.70;99.90;;;;;;5056226;28;20206;-81
2023/12/05 12:17:05;;;;;;;0.73;0.73;;;6.70;99.90;;;;;;5055895;28;20253;-80
2023/12/05 12:19:32;;;;;;;0.50;0.45;;;6.70;99.90;;;;;;5055524;28;20226;-81
2023/12/05 12:22:06;;;;;;;1.40;1.13;;;6.70;99.90;;;;;;5054546;28;20674;-81
2023/12/05 12:24:33;;;;;;;1.17;1.13;;;6.70;99.90;;;;;;5055646;28;20199;-81
2023/12/05 12:27:00;;;;;;;1.40;0.80;;;6.60;99.90;;;;;;5055250;28;20199;-81
2023/12/05 12:29:27;;;;;;;0.40;0.40;;;6.60;99.90;;;;;;5054961;28;20606;-81
2023/12/05 12:32:06;;;;;;;0.85;0.75;;;6.60;99.90;;;;;;5064313;28;20232;-82
2023/12/05 12:34:33;;;;;;;0.57;0.57;;;6.70;99.90;;;;;;5074742;28;20198;-83
2023/12/05 12:37:02;;;;;;;2.20;2.05;;;6.70;99.90;;;;;;5091347;22;20510;-81
2023/12/05 12:39:30;;;;;;;0.95;0.95;;;6.70;99.90;;;;;;5060854;28;20214;-78
2023/12/05 12:41:57;;;;;;;0.40;0.30;;;6.70;99.90;;;;;;5069795;28;20220;-79
2023/12/05 12:44:27;;;;;;;0.50;0.50;;;6.70;99.90;;;;;;5060419;28;20207;-80
2023/12/05 12:46:55;;;;;;;0.40;0.40;;;6.70;99.90;;;;;;5069147;28;20215;-79
2023/12/05 12:49:21;;;;;;;0.63;0.60;;;6.70;99.90;;;;;;5071798;28;20201;-77
2023/12/05 12:51:49;;;;;;;1.20;1.20;;;6.70;99.90;;;;;;5062954;28;20201;-77
2023/12/05 12:54:18;;;;;;;0.40;0.40;;;6.70;99.90;;;;;;5067491;28;20202;-79
2023/12/05 12:56:45;;;;;;;0.45;0.45;;;6.70;99.90;;;;;;5059656;28;20334;-79
2023/12/05 12:59:12;;;;;;;0.40;0.30;;;6.70;99.90;;;;;;5067523;28;20215;-79
2023/12/05 13:01:39;;;;;;;0.77;0.77;;;6.70;99.90;;;;;;5066724;28;20550;-80